createdAt,value
2023-04-13T00:00:48.577Z,99268.19
2023-04-13T00:03:18.088Z,99285.41
2023-04-13T00:05:46.633Z,99270.16
2023-04-13T00:08:13.920Z,99281.50
2023-04-13T00:10:42.105Z,99279.63
2023-04-13T00:13:09.975Z,99295.13
2023-04-13T00:15:38.478Z,99291.25
2023-04-13T00:18:07.254Z,99299.28
2023-04-13T00:20:34.266Z,99300.41
2023-04-13T00:23:01.611Z,99308.19
2023-04-13T00:25:29.526Z,99310.69
2023-04-13T00:27:56.537Z,99312.13
2023-04-13T00:30:23.414Z,99314.38
2023-04-13T00:32:50.581Z,99326.31
2023-04-13T00:35:19.461Z,99327.13
2023-04-13T00:37:48.563Z,99341.84
2023-04-13T00:40:17.056Z,99335.47
2023-04-13T00:42:45.283Z,99335.25
2023-04-13T00:45:13.943Z,99334.09
2023-04-13T00:47:42.444Z,99333.81
2023-04-13T00:50:09.611Z,99344.09
2023-04-13T00:52:38.756Z,99344.09
2023-04-13T00:55:06.581Z,99344.09
2023-04-13T00:57:34.585Z,99339.16
2023-04-13T01:00:01.879Z,99348.31
2023-04-13T01:02:28.905Z,99345.84
2023-04-13T01:04:56.574Z,99353.03
2023-04-13T01:07:26.861Z,99349.16
2023-04-13T01:09:56.909Z,99354.47
2023-04-13T01:12:26.832Z,99356.13
2023-04-13T01:14:59.237Z,99356.94
2023-04-13T01:17:29.288Z,99355.81
2023-04-13T01:19:59.690Z,99369.09
2023-04-13T01:22:29.079Z,99363.31
2023-04-13T01:24:58.997Z,99370.53
2023-04-13T01:27:28.955Z,99366.09
2023-04-13T01:29:58.501Z,99370.31
2023-04-13T01:32:26.110Z,99384.41
2023-04-13T01:34:53.020Z,99388.63
2023-04-13T01:37:20.078Z,99388.63
2023-04-13T01:39:49.362Z,99393.34
2023-04-13T01:42:16.689Z,99397.47
2023-04-13T01:44:44.122Z,99403.66
2023-04-13T01:47:20.720Z,99406.72
2023-04-13T01:49:52.815Z,99395.81
2023-04-13T01:52:21.251Z,99405.59
2023-04-13T01:54:53.765Z,99406.19
2023-04-13T01:57:22.670Z,99415.03
2023-04-13T01:59:49.452Z,99417.81
2023-04-13T02:02:17.894Z,99422.84
2023-04-13T02:04:44.839Z,99423.66
2023-04-13T02:07:12.776Z,99428.63
2023-04-13T02:09:39.698Z,99426.16
2023-04-13T02:12:06.728Z,99431.72
2023-04-13T02:14:33.901Z,99432.31
2023-04-13T02:17:00.858Z,99443.72
2023-04-13T02:19:27.762Z,99439.22
2023-04-13T02:22:00.089Z,99453.72
2023-04-13T02:24:27.007Z,99457.31
2023-04-13T02:26:53.919Z,99461.41
2023-04-13T02:29:20.800Z,99456.78
2023-04-13T02:31:47.778Z,99459.84
2023-04-13T02:34:14.772Z,99473.16
2023-04-13T02:36:42.529Z,99477.88
2023-04-13T02:39:09.499Z,99472.91
2023-04-13T02:41:36.390Z,99476.50
2023-04-13T02:44:03.408Z,99477.31
2023-04-13T02:46:32.654Z,99476.00
2023-04-13T02:49:00.117Z,99490.44
2023-04-13T02:51:28.430Z,99486.78
2023-04-13T02:53:57.758Z,99489.03
2023-04-13T02:56:28.664Z,99492.44
2023-04-13T02:58:55.602Z,99492.31
2023-04-13T03:01:25.406Z,99498.19
2023-04-13T03:03:52.379Z,99511.53
2023-04-13T03:06:19.355Z,99503.53
2023-04-13T03:08:46.692Z,99503.81
2023-04-13T03:11:13.647Z,99512.38
2023-04-13T03:13:40.572Z,99519.59
2023-04-13T03:16:07.788Z,99522.97
2023-04-13T03:18:34.836Z,99523.75
2023-04-13T03:21:02.865Z,99534.06
2023-04-13T03:23:29.786Z,99536.84
2023-04-13T03:25:56.746Z,99536.59
2023-04-13T03:28:24.209Z,99529.94
2023-04-13T03:30:51.415Z,99547.13
2023-04-13T03:33:18.338Z,99541.03
2023-04-13T03:35:45.308Z,99544.94
2023-04-13T03:38:12.379Z,99560.47
2023-04-13T03:40:39.428Z,99560.47
2023-04-13T03:43:06.383Z,99560.47
2023-04-13T03:45:33.668Z,99570.75
2023-04-13T03:48:00.732Z,99576.28
2023-04-13T03:50:29.042Z,99575.72
2023-04-13T03:52:55.988Z,99581.00
2023-04-13T03:55:25.277Z,99581.00
2023-04-13T03:57:52.260Z,99582.44
2023-04-13T04:00:22.638Z,99591.59
2023-04-13T04:02:49.786Z,99591.28
2023-04-13T04:05:17.398Z,99599.94
2023-04-13T04:07:44.412Z,99609.09
2023-04-13T04:10:11.506Z,99607.66
2023-04-13T04:12:38.462Z,99611.88
2023-04-13T04:15:05.870Z,99606.88
2023-04-13T04:17:33.307Z,99606.59
2023-04-13T04:20:00.310Z,99619.94
2023-04-13T04:22:30.519Z,99617.72
2023-04-13T04:25:00.539Z,99627.97
2023-04-13T04:27:27.500Z,99614.94
2023-04-13T04:29:59.569Z,99620.78
2023-04-13T04:32:26.663Z,99628.59
2023-04-13T04:34:53.583Z,99629.69
2023-04-13T04:37:23.785Z,99633.31
2023-04-13T04:39:53.777Z,99639.69
2023-04-13T04:42:21.338Z,99639.38
2023-04-13T04:44:50.488Z,99637.13
2023-04-13T04:47:17.765Z,99644.41
2023-04-13T04:49:44.693Z,99649.69
2023-04-13T04:52:12.848Z,99645.53
2023-04-13T04:54:40.836Z,99643.88
2023-04-13T04:57:10.888Z,99664.66
2023-04-13T04:59:37.846Z,99657.22
2023-04-13T05:02:05.038Z,99677.16
2023-04-13T05:04:32.024Z,99666.94
2023-04-13T05:06:59.099Z,99681.66
2023-04-13T05:09:26.408Z,99678.59
2023-04-13T05:11:53.417Z,99682.78
2023-04-13T05:14:20.399Z,99678.84
2023-04-13T05:16:47.340Z,99687.53
2023-04-13T05:19:14.455Z,99682.50
2023-04-13T05:21:41.399Z,99699.16
2023-04-13T05:24:11.812Z,99695.03
2023-04-13T05:26:38.872Z,99706.06
2023-04-13T05:29:07.192Z,99697.78
2023-04-13T05:31:34.287Z,99695.03
2023-04-13T05:34:02.147Z,99700.56
2023-04-13T05:36:29.571Z,99701.97
2023-04-13T05:38:58.260Z,99710.00
2023-04-13T05:41:25.481Z,99704.19
2023-04-13T05:43:52.381Z,99712.25
2023-04-13T05:46:19.385Z,99710.28
2023-04-13T05:48:46.303Z,99717.22
2023-04-13T05:51:13.297Z,99724.72
2023-04-13T05:53:40.198Z,99720.00
2023-04-13T05:56:08.371Z,99720.88
2023-04-13T05:58:35.350Z,99726.13
2023-04-13T06:01:02.408Z,99739.44
2023-04-13T06:03:30.250Z,99743.91
2023-04-13T06:05:57.366Z,99736.94
2023-04-13T06:08:34.208Z,99743.59
2023-04-13T06:11:01.536Z,99743.91
2023-04-13T06:13:28.457Z,99750.56
2023-04-13T06:15:58.568Z,99763.03
2023-04-13T06:18:27.185Z,99758.06
2023-04-13T06:20:54.276Z,99762.78
2023-04-13T06:23:22.198Z,99767.22
2023-04-13T06:25:49.718Z,99770.00
2023-04-13T06:28:17.035Z,99767.50
2023-04-13T06:30:44.090Z,99775.25
2023-04-13T06:33:11.756Z,99787.78
2023-04-13T06:35:38.939Z,99778.63
2023-04-13T06:38:05.951Z,99784.72
2023-04-13T06:40:33.872Z,99784.16
2023-04-13T06:43:00.983Z,99795.50
2023-04-13T06:45:28.064Z,99793.03
2023-04-13T06:47:55.016Z,99790.81
2023-04-13T06:50:22.116Z,99799.16
2023-04-13T06:52:49.600Z,99808.03
2023-04-13T06:55:17.845Z,99813.84
2023-04-13T06:57:45.052Z,99818.28
2023-04-13T07:00:26.358Z,99815.56
2023-04-13T07:02:56.000Z,99823.59
2023-04-13T07:05:23.054Z,99818.94
2023-04-13T07:07:50.149Z,99822.78
2023-04-13T07:10:17.203Z,99827.22
2023-04-13T07:12:44.252Z,99839.44
2023-04-13T07:15:11.383Z,99843.56
2023-04-13T07:17:41.415Z,99835.53
2023-04-13T07:20:09.868Z,99848.88
2023-04-13T07:22:37.071Z,99859.13
2023-04-13T07:25:04.548Z,99852.47
2023-04-13T07:27:33.542Z,99841.38
2023-04-13T07:30:01.616Z,99855.84
2023-04-13T07:32:31.506Z,99860.25
2023-04-13T07:35:02.264Z,99865.53
2023-04-13T07:37:30.124Z,99869.97
2023-04-13T07:39:57.243Z,99865.28
2023-04-13T07:42:25.189Z,99864.16
2023-04-13T07:44:55.428Z,99864.44
2023-04-13T07:47:22.505Z,99870.81
2023-04-13T07:49:52.748Z,99872.47
2023-04-13T07:52:20.498Z,99872.47
2023-04-13T07:54:47.591Z,99868.88
2023-04-13T07:57:14.643Z,99889.69
2023-04-13T07:59:41.696Z,99883.59
2023-04-13T08:02:08.762Z,99886.63
2023-04-13T08:04:36.537Z,99888.00
2023-04-13T08:07:04.444Z,99878.31
2023-04-13T08:09:33.191Z,99901.06
2023-04-13T08:12:00.245Z,99901.34
2023-04-13T08:14:27.309Z,99892.78
2023-04-13T08:16:54.560Z,99900.50
2023-04-13T08:19:24.610Z,99898.84
2023-04-13T08:21:52.908Z,99898.28
2023-04-13T08:24:21.251Z,99899.69
2023-04-13T08:26:48.313Z,99908.84
2023-04-13T08:29:17.560Z,99906.03
2023-04-13T08:31:44.596Z,99905.47
2023-04-13T08:34:12.513Z,99908.25
2023-04-13T08:36:41.732Z,99910.19
2023-04-13T08:39:10.663Z,99912.97
2023-04-13T08:41:41.080Z,99927.41
2023-04-13T08:44:09.124Z,99936.00
2023-04-13T08:46:37.203Z,99926.56
2023-04-13T08:49:04.733Z,99933.78
2023-04-13T08:51:33.041Z,99930.44
2023-04-13T08:54:00.371Z,99934.63
2023-04-13T08:56:42.152Z,99932.13
2023-04-13T08:59:13.468Z,99931.28
2023-04-13T09:01:41.029Z,99943.22
2023-04-13T09:04:09.287Z,99944.88
2023-04-13T09:06:40.286Z,99942.63
2023-04-13T09:09:09.332Z,99945.97
2023-04-13T09:11:36.759Z,99941.53
2023-04-13T09:14:03.756Z,99950.41
2023-04-13T09:16:31.380Z,99952.88
2023-04-13T09:18:58.934Z,99956.78
2023-04-13T09:21:37.017Z,99965.13
2023-04-13T09:24:04.208Z,99956.47
2023-04-13T09:26:39.917Z,99962.03
2023-04-13T09:29:09.615Z,99967.03
2023-04-13T09:31:38.930Z,99973.66
2023-04-13T09:34:06.438Z,99964.25
2023-04-13T09:36:33.840Z,99969.50
2023-04-13T09:39:00.962Z,99983.38
2023-04-13T09:41:30.679Z,99958.13
2023-04-13T09:43:58.185Z,99953.41
2023-04-13T09:46:25.283Z,99965.84
2023-04-13T09:49:01.862Z,99967.25
2023-04-13T09:51:37.712Z,99960.59
2023-04-13T09:54:06.304Z,99970.28
2023-04-13T09:56:42.389Z,99992.22
2023-04-13T09:59:10.097Z,99968.31
2023-04-13T10:01:37.862Z,99980.47
2023-04-13T10:04:06.524Z,99981.00
2023-04-13T10:06:38.965Z,99987.41
2023-04-13T10:09:06.402Z,99982.16
2023-04-13T10:11:40.228Z,99987.69
2023-04-13T10:14:12.544Z,99990.16
2023-04-13T10:16:40.797Z,99999.88
2023-04-13T10:19:12.897Z,99998.19
2023-04-13T10:21:41.515Z,99993.16
2023-04-13T10:24:11.728Z,99994.56
2023-04-13T10:26:40.025Z,99993.69
2023-04-13T10:29:08.366Z,100000.59
2023-04-13T10:31:38.387Z,100000.56
2023-04-13T10:34:08.275Z,99986.34
2023-04-13T10:36:42.117Z,100015.50
2023-04-13T10:39:10.947Z,100007.72
2023-04-13T10:41:38.461Z,99996.03
2023-04-13T10:44:06.826Z,99989.59
2023-04-13T10:46:35.475Z,100004.88
2023-04-13T10:49:03.451Z,100004.81
2023-04-13T10:51:39.697Z,99998.38
2023-04-13T10:54:07.278Z,100003.66
2023-04-13T10:56:34.510Z,100006.44
2023-04-13T10:59:01.630Z,100006.72
2023-04-13T11:01:30.920Z,100014.81
2023-04-13T11:04:05.111Z,100007.94
2023-04-13T11:06:38.582Z,100004.09
2023-04-13T11:09:14.309Z,100006.00
2023-04-13T11:11:42.357Z,100003.19
2023-04-13T11:14:09.414Z,100005.38
2023-04-13T11:16:47.298Z,99995.88
2023-04-13T11:19:15.561Z,100008.06
2023-04-13T11:21:45.297Z,100009.72
2023-04-13T11:24:12.426Z,100014.19
2023-04-13T11:26:39.487Z,100001.31
2023-04-13T11:29:06.570Z,100000.25
2023-04-13T11:31:37.910Z,100005.19
2023-04-13T11:34:06.322Z,99993.75
2023-04-13T11:36:33.992Z,99996.22
2023-04-13T11:39:02.326Z,100004.00
2023-04-13T11:41:30.498Z,100002.94
2023-04-13T11:43:57.703Z,100009.34
2023-04-13T11:46:26.118Z,100006.31
2023-04-13T11:48:53.394Z,100007.72
2023-04-13T11:51:21.512Z,100007.66
2023-04-13T11:53:49.678Z,99994.59
2023-04-13T11:56:19.852Z,99997.09
2023-04-13T11:58:50.199Z,99996.78
2023-04-13T12:01:25.125Z,100002.28
2023-04-13T12:04:15.088Z,99993.38
2023-04-13T12:06:46.206Z,99998.94
2023-04-13T12:09:16.835Z,100008.44
2023-04-13T12:11:50.092Z,100012.94
2023-04-13T12:19:28.633Z,100022.75
2023-04-13T12:21:57.990Z,100014.41
2023-04-13T12:24:37.909Z,100018.59
2023-04-13T12:29:37.635Z,100026.88
2023-04-13T12:32:09.331Z,100023.81
2023-04-13T12:34:37.020Z,100012.16
2023-04-13T12:37:04.811Z,100024.94
2023-04-13T12:39:32.287Z,100016.06
2023-04-13T12:41:59.286Z,100011.56
2023-04-13T12:44:26.402Z,100023.81
2023-04-13T12:46:53.433Z,100030.78
2023-04-13T12:49:20.684Z,100026.06
2023-04-13T12:51:47.730Z,100026.34
2023-04-13T12:54:25.343Z,100025.22
2023-04-13T12:56:52.647Z,100024.38
2023-04-13T12:59:22.515Z,100034.13
2023-04-13T13:01:49.960Z,100041.84
2023-04-13T13:04:17.344Z,100045.19
2023-04-13T13:06:44.369Z,100032.16
2023-04-13T13:09:11.535Z,100034.63
2023-04-13T13:11:39.085Z,100031.03
2023-04-13T13:14:07.386Z,100040.50
2023-04-13T13:16:35.841Z,100039.91
2023-04-13T13:19:05.366Z,100031.56
2023-04-13T13:21:32.880Z,100031.84
2023-04-13T13:23:59.842Z,100020.16
2023-04-13T13:26:30.616Z,100009.34
2023-04-13T13:29:07.565Z,100015.72
2023-04-13T13:31:34.635Z,100007.91
2023-04-13T13:34:01.860Z,100010.69
2023-04-13T13:36:31.107Z,100016.78
2023-04-13T13:39:00.266Z,100025.97
2023-04-13T13:41:27.740Z,100006.50
2023-04-13T13:43:54.661Z,100002.59
2023-04-13T13:46:21.857Z,100015.38
2023-04-13T13:48:48.918Z,100010.94
2023-04-13T13:51:16.352Z,100002.28
2023-04-13T13:53:43.412Z,100012.03
2023-04-13T13:56:10.437Z,100010.34
2023-04-13T13:58:37.470Z,100013.13
2023-04-13T14:01:08.375Z,100015.38
2023-04-13T14:03:35.580Z,100015.63
2023-04-13T14:06:03.040Z,100016.97
2023-04-13T14:08:30.016Z,100008.13
2023-04-13T14:10:57.405Z,100013.97
2023-04-13T14:13:24.417Z,100014.25
2023-04-13T14:15:51.729Z,100015.09
2023-04-13T14:18:18.864Z,100015.31
2023-04-13T14:20:45.924Z,100011.78
2023-04-13T14:23:13.127Z,100029.28
2023-04-13T14:25:41.648Z,100014.56
2023-04-13T14:28:09.639Z,100017.34
2023-04-13T14:30:36.688Z,100024.03
2023-04-13T14:33:04.504Z,100024.84
2023-04-13T14:35:31.956Z,100028.75
2023-04-13T14:38:05.468Z,100040.38
2023-04-13T14:40:33.124Z,100041.81
2023-04-13T14:43:00.188Z,100061.03
2023-04-13T14:45:28.217Z,100058.53
2023-04-13T14:47:55.227Z,100071.03
2023-04-13T14:50:22.733Z,100070.78
2023-04-13T14:52:52.847Z,100078.00
2023-04-13T14:55:20.201Z,100074.38
2023-04-13T14:57:47.515Z,100081.38
2023-04-13T15:00:18.407Z,100074.69
2023-04-13T15:02:45.672Z,100081.38
2023-04-13T15:05:13.208Z,100076.66
2023-04-13T15:07:40.746Z,100080.53
2023-04-13T15:10:08.935Z,100078.88
2023-04-13T15:12:35.962Z,100090.53
2023-04-13T15:15:02.994Z,100098.06
2023-04-13T15:17:30.248Z,100100.84
2023-04-13T15:19:57.238Z,100109.19
2023-04-13T15:22:24.305Z,100108.06
2023-04-13T15:24:51.360Z,100108.06
2023-04-13T15:27:18.348Z,100105.81
2023-04-13T15:29:45.298Z,100100.47
2023-04-13T15:32:12.239Z,100100.78
2023-04-13T15:34:40.805Z,100088.84
2023-04-13T15:37:07.677Z,100090.50
2023-04-13T15:39:34.571Z,100094.94
2023-04-13T15:42:02.604Z,100089.69
2023-04-13T15:44:29.618Z,100083.81
2023-04-13T15:46:56.535Z,100090.50
2023-04-13T15:49:23.626Z,100084.34
2023-04-13T15:51:50.499Z,100091.31
2023-04-13T15:54:18.223Z,100091.31
2023-04-13T15:56:45.170Z,100096.06
2023-04-13T15:59:12.145Z,100101.03
2023-04-13T16:01:48.882Z,100099.63
2023-04-13T16:04:16.350Z,100102.44
2023-04-13T16:06:43.496Z,100117.44
2023-04-13T16:09:10.398Z,100117.97
2023-04-13T16:11:39.113Z,100102.97
2023-04-13T16:14:09.633Z,100106.09
2023-04-13T16:16:46.152Z,100107.22
2023-04-13T16:19:14.084Z,100101.66
2023-04-13T16:21:43.797Z,100100.00
2023-04-13T16:24:11.109Z,100092.19
2023-04-13T16:26:38.310Z,100088.28
2023-04-13T16:29:05.637Z,100101.34
2023-04-13T16:31:32.759Z,100092.75
2023-04-13T16:33:59.774Z,100101.91
2023-04-13T16:36:27.682Z,100102.44
2023-04-13T16:38:54.733Z,100101.31
2023-04-13T16:41:21.710Z,100100.47
2023-04-13T16:43:48.724Z,100101.88
2023-04-13T16:46:16.661Z,100106.88
2023-04-13T16:48:44.291Z,100121.03
2023-04-13T16:51:11.305Z,100122.19
2023-04-13T16:53:41.013Z,100122.47
2023-04-13T16:56:08.050Z,100133.59
2023-04-13T16:58:35.026Z,100135.31
2023-04-13T17:01:02.055Z,100137.81
2023-04-13T17:03:29.885Z,100138.09
2023-04-13T17:05:57.167Z,100149.22
2023-04-13T17:08:24.403Z,100152.25
2023-04-13T17:10:52.953Z,100155.59
2023-04-13T17:13:20.000Z,100154.50
2023-04-13T17:15:47.011Z,100155.34
2023-04-13T17:18:14.348Z,100156.47
2023-04-13T17:20:41.488Z,100165.91
2023-04-13T17:23:09.034Z,100159.84
2023-04-13T17:25:41.414Z,100163.97
2023-04-13T17:28:09.434Z,100169.81
2023-04-13T17:30:37.030Z,100171.75
2023-04-13T17:33:05.359Z,100164.56
2023-04-13T17:35:32.376Z,100174.00
2023-04-13T17:37:59.234Z,100166.78
2023-04-13T17:40:26.642Z,100168.72
2023-04-13T17:42:53.646Z,100171.81
2023-04-13T17:45:23.167Z,100172.94
2023-04-13T17:47:50.109Z,100194.84
2023-04-13T17:50:17.183Z,100177.38
2023-04-13T17:52:44.346Z,100189.28
2023-04-13T17:55:11.350Z,100185.41
2023-04-13T17:57:38.520Z,100192.91
2023-04-13T18:00:05.899Z,100190.13
2023-04-13T18:02:33.004Z,100195.16
2023-04-13T18:05:00.042Z,100202.09
2023-04-13T18:07:27.172Z,100198.22
2023-04-13T18:09:54.296Z,100205.19
2023-04-13T18:12:21.332Z,100214.91
2023-04-13T18:14:48.339Z,100223.22
2023-04-13T18:17:15.557Z,100223.22
2023-04-13T18:19:43.028Z,100219.06
2023-04-13T18:22:10.113Z,100235.78
2023-04-13T18:24:37.097Z,100229.06
2023-04-13T18:27:04.101Z,100238.25
2023-04-13T18:29:31.337Z,100240.50
2023-04-13T18:31:58.361Z,100242.41
2023-04-13T18:34:25.522Z,100254.63
2023-04-13T18:36:52.448Z,100254.91
2023-04-13T18:39:19.759Z,100261.63
2023-04-13T18:41:47.587Z,100261.63
2023-04-13T18:44:14.620Z,100261.63
2023-04-13T18:46:41.688Z,100271.59
2023-04-13T18:49:11.650Z,100270.22
2023-04-13T18:51:38.994Z,100280.50
2023-04-13T18:54:06.254Z,100273.25
2023-04-13T18:56:33.257Z,100278.53
2023-04-13T18:59:00.121Z,100278.81
2023-04-13T19:01:27.255Z,100285.50
2023-04-13T19:03:54.560Z,100290.22
2023-04-13T19:06:21.754Z,100288.56
2023-04-13T19:08:48.601Z,100295.50
2023-04-13T19:11:17.949Z,100292.72
2023-04-13T19:13:46.603Z,100288.84
2023-04-13T19:16:14.314Z,100299.97
2023-04-13T19:18:41.441Z,100293.28
2023-04-13T19:21:08.596Z,100298.84
2023-04-13T19:23:36.601Z,100303.03
2023-04-13T19:26:05.855Z,100302.19
2023-04-13T19:28:32.756Z,100309.13
2023-04-13T19:31:00.041Z,100300.81
2023-04-13T19:33:29.249Z,100304.69
2023-04-13T19:35:56.374Z,100309.72
2023-04-13T19:38:23.242Z,100303.03
2023-04-13T19:40:50.134Z,100304.69
2023-04-13T19:43:21.064Z,100308.88
2023-04-13T19:45:48.296Z,100311.66
2023-04-13T19:48:15.397Z,100325.81
2023-04-13T19:50:42.317Z,100325.81
2023-04-13T19:53:09.204Z,100331.66
2023-04-13T19:55:36.666Z,100328.88
2023-04-13T19:58:03.847Z,100328.88
2023-04-13T20:00:30.971Z,100329.16
2023-04-13T20:03:03.570Z,100343.06
2023-04-13T20:05:30.861Z,100348.63
2023-04-13T20:07:58.013Z,100342.50
2023-04-13T20:10:25.062Z,100348.88
2023-04-13T20:12:51.985Z,100337.22
2023-04-13T20:15:19.156Z,100345.00
2023-04-13T20:17:48.381Z,100332.75
2023-04-13T20:20:18.340Z,100335.84
2023-04-13T20:22:46.425Z,100338.31
2023-04-13T20:25:13.483Z,100333.59
2023-04-13T20:27:42.395Z,100333.06
2023-04-13T20:30:10.316Z,100336.69
2023-04-13T20:32:37.495Z,100343.06
2023-04-13T20:35:06.540Z,100341.41
2023-04-13T20:37:33.547Z,100346.38
2023-04-13T20:40:00.999Z,100335.84
2023-04-13T20:42:27.996Z,100338.63
2023-04-13T20:44:58.049Z,100342.50
2023-04-13T20:47:25.843Z,100345.56
2023-04-13T20:49:54.861Z,100342.25
2023-04-13T20:52:23.003Z,100349.75
2023-04-13T20:54:51.071Z,100347.25
2023-04-13T20:57:19.461Z,100352.53
2023-04-13T20:59:46.598Z,100351.69
2023-04-13T21:02:15.123Z,100352.25
2023-04-13T21:04:42.466Z,100354.47
2023-04-13T21:07:11.392Z,100355.03
2023-04-13T21:09:38.595Z,100355.03
2023-04-13T21:12:05.514Z,100350.31
2023-04-13T21:14:32.598Z,100352.78
2023-04-13T21:16:59.486Z,100353.38
2023-04-13T21:19:26.377Z,100353.09
2023-04-13T21:21:53.996Z,100354.22
2023-04-13T21:24:20.892Z,100356.41
2023-04-13T21:26:47.816Z,100348.09
2023-04-13T21:29:16.653Z,100356.13
2023-04-13T21:31:43.625Z,100348.91
2023-04-13T21:34:10.488Z,100345.84
2023-04-13T21:39:07.151Z,100349.72
2023-04-13T21:41:34.007Z,100350.84
2023-04-13T21:44:01.420Z,100348.63
2023-04-13T21:46:28.643Z,100350.84
2023-04-13T21:48:55.804Z,100359.75
2023-04-13T21:51:22.753Z,100345.56
2023-04-13T21:53:52.669Z,100341.66
2023-04-13T21:56:19.530Z,100349.47
2023-04-13T21:58:46.398Z,100351.41
2023-04-13T22:01:13.907Z,100346.69
2023-04-13T22:03:42.013Z,100348.34
2023-04-13T22:06:10.307Z,100354.19
2023-04-13T22:08:37.660Z,100350.31
2023-04-13T22:11:04.797Z,100345.59
2023-04-13T22:13:31.733Z,100348.06
2023-04-13T22:16:00.989Z,100350.56
2023-04-13T22:18:28.091Z,100352.25
2023-04-13T22:20:54.901Z,100348.63
2023-04-13T22:23:21.728Z,100343.66
2023-04-13T22:25:53.780Z,100350.56
2023-04-13T22:28:21.232Z,100348.91
2023-04-13T22:30:48.152Z,100351.41
2023-04-13T22:33:15.565Z,100347.53
2023-04-13T22:35:42.443Z,100345.84
2023-04-13T22:38:09.338Z,100342.25
2023-04-13T22:40:38.089Z,100345.28
2023-04-13T22:43:05.548Z,100343.66
2023-04-13T22:45:32.391Z,100343.66
2023-04-13T22:47:59.280Z,100339.19
2023-04-13T22:50:26.097Z,100336.41
2023-04-13T22:52:54.447Z,100333.38
2023-04-13T22:55:21.630Z,100339.72
2023-04-13T22:57:50.918Z,100335.59
2023-04-13T23:00:20.898Z,100330.59
2023-04-13T23:02:50.781Z,100332.53
2023-04-13T23:05:17.881Z,100335.59
2023-04-13T23:07:44.728Z,100326.97
2023-04-13T23:10:11.588Z,100335.00
2023-04-13T23:12:38.378Z,100335.31
2023-04-13T23:15:05.601Z,100331.41
2023-04-13T23:17:32.522Z,100335.84
2023-04-13T23:19:59.438Z,100328.34
2023-04-13T23:22:26.244Z,100326.69
2023-04-13T23:24:55.423Z,100331.13
2023-04-13T23:27:22.208Z,100340.31
2023-04-13T23:29:49.757Z,100337.53
2023-04-13T23:32:16.717Z,100338.63
2023-04-13T23:34:43.589Z,100332.81
2023-04-13T23:37:10.389Z,100335.31
2023-04-13T23:39:37.906Z,100328.66
2023-04-13T23:42:04.912Z,100330.88
2023-04-13T23:44:31.735Z,100331.72
2023-04-13T23:46:58.608Z,100332.53
2023-04-13T23:49:25.424Z,100338.38
2023-04-13T23:51:52.188Z,100341.16
2023-04-13T23:54:19.143Z,100342.56
2023-04-13T23:56:46.054Z,100349.47
2023-04-13T23:59:16.302Z,100356.13
